Parlier, CA (93648)

5:46 AM PDT on May 24, 2015 (GMT -0700)
McClarty Farms | | Change Station
CLOSE
Current Station
Personal Weather Station
Location: Parlier, CA
Elevation: 338 ft
Nearby Weather Stations

Elev 338 ft 36.62 °N, 119.58 °W | Updated 1 minute ago

Clear
Clear
52.0 °F
Feels Like 52.0 °F
N
0.0
Wind Variable Wind from North
Gusts 0.0 mph

Today
High -- | Low -- °F
--% Chance of Precip.
Yesterday
High -- | Low -- °F
Precip. -- in
5:44 AM 8:05 PM
Waxing Crescent, 39% visible
Pressure 29.96 in
Visibility 10.0 miles
Clouds Few 10000 ft
Few 15000 ft
Dew Point 48 °F
Humidity 86%
Rainfall 0.00 in
Snow Depth Not available.
UV 0 out of 12
Pollen 6.20 out of 12
Air Quality Not available.
Flu Activity Sporadic
METAR KFAT 241153Z 29003KT 10SM FEW100 FEW150 13/09 A2996 RMK AO2 SLP143 T01280089 10183 20128 55002

More Conditions Fewer Conditions

Pressure 29.96 in
Visibility 10.0 miles
Clouds Few 10000 ft
Few 15000 ft
Dew Point 48 °F
Humidity 86%
Rainfall 0.00 in
Snow Depth Not available.
UV 0 out of 12
Pollen 6.20 out of 12
Air Quality Not available.
Flu Activity Sporadic
METAR KFAT 241153Z 29003KT 10SM FEW100 FEW150 13/09 A2996 RMK AO2 SLP143 T01280089 10183 20128 55002

More Conditions Fewer Conditions

10-Day Weather Forecast

Almanac

Astronomy

May. 24, 2015 Rise Set
Actual Time
Civil Twilight
Nautical Twilight
Astronomical Twilight
Moon
Length of Visible Light
Length of Day
Tomorrow will be .
, % of the Moon is Illuminated

Today's Extremes

State Highs State Lows

Community

WunderPhotos

Upload Photos

1,823,722 photos uploaded!

WunderBlogs® & News

Nearby

Air Quality

  Air Quality AQ Index Pollutant
Not available.

Snow Depth

Station Depth Elevation

Earthquake Activity

City Distance Mag. Time & Date
Minimum magnitude displayed is 2.5.

Coastal Water Temperatures

Place Temperature

Stations

Nearby Weather Stations

Station Location Temp. Windchill Dew Point Humidity Wind Precip. Elev Updated Type